< VanCam Weather - Nearby METAR Reports

Nearby METAR Reports

 

KPDX - Portland Intl
Distance from station: SW 8.9mi, 14.3km
Updated: 04/20/2018 4:53pm
Mostly cloudy
Mostly cloudy
 Wind from calm
Wind: Calm
Temperature: 66°F , 19°C
Dew Point: 37°F , 3°C
Humidity: 35%
Barometer: 30.17 inHg , 1021.7 hPa
Clouds: Mostly cloudy
Visibility: 10 miles , 16 km
Cloud details: Few Clouds 10000 ft
Mostly cloudy 12000 ft
Mostly cloudy 15000 ft
Mostly cloudy 21000 ft
2018/04/20 23:53 KPDX 202353Z 00000KT 10SM FEW100 BKN120 BKN150 BKN210 19/03 A3017 RMK AO2 SLP216 VIRGA S ACSL E-SE T01890028 10200 20133 58014
KVUO - Vancouver
Distance from station: W 10.7mi, 17.2km
Updated: 04/20/2018 4:53pm
Mostly cloudy
Mostly cloudy
 Wind from calm
Wind: Calm
Temperature: 66°F , 19°C
Dew Point: 37°F , 3°C
Humidity: 35%
Barometer: 30.16 inHg , 1021.3 hPa
Clouds: Mostly cloudy
Visibility: 10 miles , 16 km
Cloud details: Mostly cloudy 11000 ft
2018/04/20 23:53 KVUO 202353Z AUTO 00000KT 10SM BKN110 19/03 A3016 RMK AO2 SLP214 T01890033 10194 20128 56016
 
KTTD - Troutdale
Distance from station: SSE 8.1mi, 13km
Updated: 04/20/2018 4:53pm
Few Clouds
Few Clouds
 Wind from varies
Wind: varies 3 mph , 6 km/h
Temperature: 66°F , 19°C
Dew Point: 37°F , 3°C
Humidity: 35%
Barometer: 30.17 inHg , 1021.7 hPa
Clouds: Few Clouds
Visibility: 10 miles , 16 km
Cloud details: Few Clouds 10000 ft
2018/04/20 23:53 KTTD 202353Z VRB03KT 10SM FEW100 19/03 A3017 RMK AO2 SLP214 T01940028 10206 20144 58014
KSPB - Scappoose
Distance from station: WSW 21.6mi, 34.8km
Updated: 04/20/2018 4:53pm
Overcast
Overcast
 Wind from ENE
Wind: ENE 5 mph , 7 km/h
Temperature: 63°F , 17°C
Dew Point: 37°F , 3°C
Humidity: 39%
Barometer: 30.17 inHg , 1021.7 hPa
Clouds: Overcast
Visibility: 10 miles , 16 km
Cloud details: Overcast 11000 ft
2018/04/20 23:53 KSPB 202353Z AUTO 07004KT 10SM OVC110 17/03 A3017 RMK AO2 SLP215 T01720028 10178 20117 56017
 
KHIO - Hillsboro
Distance from station: SW 25.8mi, 41.5km
Updated: 04/20/2018 4:53pm
Mostly cloudy
Mostly cloudy
 Wind from varies
Wind: varies 3 mph , 6 km/h
Temperature: 64°F , 18°C
Dew Point: 37°F , 3°C
Humidity: 37%
Barometer: 30.17 inHg , 1021.7 hPa
Clouds: Mostly cloudy
Visibility: 10 miles , 16 km
Cloud details: Mostly cloudy 11000 ft
2018/04/20 23:53 KHIO 202353Z VRB03KT 10SM BKN110 18/03 A3017 RMK AO2 SLP217 T01780028 10189 20128 56016
KDLS - The Dalles
Distance from station: E 61.4mi, 98.8km
Updated: 04/20/2018 4:53pm
Overcast
Overcast
 Wind from WNW
Wind: WNW 12 mph , 19 km/h
Temperature: 68°F , 20°C
Dew Point: 30°F , -1°C
Humidity: 24%
Barometer: 30.11 inHg , 1019.6 hPa
Clouds: Overcast
Visibility: 10 miles , 16 km
Cloud details: Overcast 12000 ft
2018/04/20 23:53 KDLS 202353Z AUTO 30010KT 10SM OVC120 20/M01 A3011 RMK AO2 SLP195 T02001006 10239 20156 56015
 
KAST - Astoria
Distance from station: WNW 77.2mi, 124.2km
Updated: 04/20/2018 4:55pm
Overcast
Overcast
 Wind from W
Wind: W 13 mph , 20 km/h
Temperature: 52°F , 11°C
Dew Point: 43°F , 6°C
Humidity: 72%
Barometer: 30.22 inHg , 1023.4 hPa
Clouds: Overcast
Visibility: 10 miles , 16 km
Cloud details: Overcast 11000 ft
2018/04/20 23:55 KAST 202355Z AUTO 26011KT 10SM OVC110 11/06 A3022 RMK AO2 SLP232 60001 T01060061 10128 20094 55001
KONP - Newport
Distance from station: SW 106mi, 170.4km
Updated: 04/20/2018 5:15pm
Partly cloudy
Partly cloudy
 Wind from SW
Wind: SW 6 mph , 9 km/h
Temperature: 52°F , 11°C
Dew Point: 45°F , 7°C
Humidity: 77%
Barometer: 30.27 inHg , 1025.1 hPa
Clouds: Partly cloudy
Visibility: 10 miles , 16 km
Cloud details: Partly cloudy 11000 ft
2018/04/21 00:15 KONP 210015Z AUTO 23005KT 10SM SCT110 11/07 A3027 RMK AO2